Time;durP1;ratioP1;P1;durP2;ratioP2;P2;SDS_P1;SDS_P2;PMS_P1;PMS_P2;Temp;Humidity;BMP_temperature;BMP_pressure;BME280_temperature;BME280_humidity;BME280_pressure;Samples;Min_cycle;Max_cycle;Signal;HPM_P1;HPM_P2
2021/10/31 00:01:49;;;;;;;19.10;17.10;;;;;;;;;;5073802;28;20447;-74
2021/10/31 00:04:16;;;;;;;21.60;17.60;;;;;;;;;;5073197;28;20440;-74
2021/10/31 00:06:43;;;;;;;21.23;16.70;;;;;;;;;;5073976;28;20544;-74
2021/10/31 00:09:11;;;;;;;24.37;17.47;;;;;;;;;;5073402;28;20432;-74
2021/10/31 00:11:38;;;;;;;25.77;17.57;;;;;;;;;;5073354;28;20579;-74
2021/10/31 00:14:05;;;;;;;17.80;15.90;;;;;;;;;;5073246;28;20926;-73
2021/10/31 00:16:34;;;;;;;23.47;18.53;;;;;;;;;;5073073;28;20447;-74
2021/10/31 00:19:02;;;;;;;21.67;18.07;;;;;;;;;;5073299;28;20444;-74
2021/10/31 00:21:29;;;;;;;21.40;18.00;;;;;;;;;;5073127;28;20501;-74
2021/10/31 00:23:57;;;;;;;20.97;17.27;;;;;;;;;;5073312;28;20440;-74
2021/10/31 00:26:24;;;;;;;20.20;16.93;;;;;;;;;;5072807;28;20444;-74
2021/10/31 00:28:51;;;;;;;19.77;17.63;;;;;;;;;;5073170;28;20440;-74
2021/10/31 00:31:18;;;;;;;21.03;18.10;;;;;;;;;;5073464;28;20477;-74
2021/10/31 00:33:47;;;;;;;21.40;17.67;;;;;;;;;;5073731;28;20441;-75
2021/10/31 00:36:14;;;;;;;21.13;17.53;;;;;;;;;;5072900;28;20436;-73
2021/10/31 00:38:41;;;;;;;21.40;16.63;;;;;;;;;;5072794;28;20927;-73
2021/10/31 00:41:08;;;;;;;26.70;18.00;;;;;;;;;;5073088;28;20448;-73
2021/10/31 00:43:36;;;;;;;21.27;18.73;;;;;;;;;;5073079;28;20448;-74
2021/10/31 00:46:03;;;;;;;26.43;19.67;;;;;;;;;;5072612;28;20443;-75
2021/10/31 00:48:30;;;;;;;20.80;17.33;;;;;;;;;;5072705;28;20937;-74
2021/10/31 00:50:59;;;;;;;21.67;17.90;;;;;;;;;;5072727;28;20436;-74
2021/10/31 00:53:26;;;;;;;22.27;17.47;;;;;;;;;;5073376;28;20555;-74
2021/10/31 00:55:53;;;;;;;23.40;18.20;;;;;;;;;;5072656;28;20441;-74
2021/10/31 00:58:20;;;;;;;23.93;18.80;;;;;;;;;;5072831;28;20528;-74
2021/10/31 01:00:48;;;;;;;21.30;18.37;;;;;;;;;;5072554;28;20438;-74
2021/10/31 01:03:16;;;;;;;22.53;19.03;;;;;;;;;;5073390;28;20436;-74
2021/10/31 01:05:47;;;;;;;23.93;17.40;;;;;;;;;;5076384;28;20475;-74
2021/10/31 01:08:21;;;;;;;23.33;18.47;;;;;;;;;;5076366;28;20430;-74
2021/10/31 01:10:56;;;;;;;25.10;18.93;;;;;;;;;;5076210;28;20914;-74
2021/10/31 01:13:33;;;;;;;23.33;18.70;;;;;;;;;;5077341;28;20447;-74
2021/10/31 01:16:08;;;;;;;22.80;18.17;;;;;;;;;;5076859;28;20428;-74
2021/10/31 01:18:43;;;;;;;26.27;19.63;;;;;;;;;;5076178;28;20426;-74
2021/10/31 01:21:18;;;;;;;22.60;18.57;;;;;;;;;;5076378;28;20534;-74
2021/10/31 01:23:53;;;;;;;21.47;18.40;;;;;;;;;;5076632;28;20428;-74
2021/10/31 01:26:27;;;;;;;23.43;19.13;;;;;;;;;;5076754;28;20903;-73
2021/10/31 01:29:01;;;;;;;25.03;18.73;;;;;;;;;;5076812;28;20776;-74
2021/10/31 01:31:35;;;;;;;23.87;19.63;;;;;;;;;;5076375;28;20490;-74
2021/10/31 01:34:06;;;;;;;25.17;19.83;;;;;;;;;;5075917;28;20516;-76
2021/10/31 01:36:38;;;;;;;29.03;19.97;;;;;;;;;;5075829;28;20431;-75
2021/10/31 01:39:12;;;;;;;32.10;19.97;;;;;;;;;;5075839;28;20891;-74
2021/10/31 01:41:43;;;;;;;27.93;19.00;;;;;;;;;;5076397;28;20456;-74
2021/10/31 01:44:18;;;;;;;22.67;18.57;;;;;;;;;;5075699;28;20425;-73
2021/10/31 01:46:52;;;;;;;22.63;18.43;;;;;;;;;;5076409;28;20420;-74
2021/10/31 01:49:24;;;;;;;26.63;20.60;;;;;;;;;;5076064;28;20442;-74
2021/10/31 01:51:53;;;;;;;25.77;20.00;;;;;;;;;;5075848;28;20515;-74
2021/10/31 01:54:23;;;;;;;24.03;18.90;;;;;;;;;;5076312;28;20802;-74
2021/10/31 01:56:53;;;;;;;26.63;18.70;;;;;;;;;;5076598;28;20960;-74
2021/10/31 01:59:22;;;;;;;27.33;19.30;;;;;;;;;;5075739;28;20468;-74
2021/10/31 02:01:50;;;;;;;30.13;20.87;;;;;;;;;;5075343;28;20445;-74
2021/10/31 02:04:21;;;;;;;25.30;19.73;;;;;;;;;;5075804;28;20483;-75
2021/10/31 02:06:50;;;;;;;27.77;21.30;;;;;;;;;;5075736;28;20440;-75
2021/10/31 02:09:19;;;;;;;26.03;19.57;;;;;;;;;;5075346;28;20443;-75
2021/10/31 02:11:48;;;;;;;27.27;20.07;;;;;;;;;;5075285;28;20567;-74
2021/10/31 02:14:17;;;;;;;29.60;20.97;;;;;;;;;;5074955;28;20439;-74
2021/10/31 02:16:45;;;;;;;28.27;19.93;;;;;;;;;;5074406;28;20794;-74
2021/10/31 02:19:17;;;;;;;24.43;20.80;;;;;;;;;;5075222;28;20447;-74
2021/10/31 02:21:46;;;;;;;28.47;20.00;;;;;;;;;;5075003;28;20544;-74
2021/10/31 02:24:14;;;;;;;23.63;18.57;;;;;;;;;;5074735;28;20455;-74
2021/10/31 02:26:41;;;;;;;29.30;21.97;;;;;;;;;;5074713;28;20535;-74
2021/10/31 02:29:10;;;;;;;29.00;19.93;;;;;;;;;;5074941;28;20547;-74
2021/10/31 02:31:38;;;;;;;27.50;19.80;;;;;;;;;;5074578;28;20582;-73
2021/10/31 02:34:06;;;;;;;31.03;22.03;;;;;;;;;;5075389;28;20442;-74
2021/10/31 02:36:33;;;;;;;30.23;20.67;;;;;;;;;;5074938;28;20440;-74
2021/10/31 02:39:02;;;;;;;29.77;19.30;;;;;;;;;;5074850;28;20432;-73
2021/10/31 02:41:31;;;;;;;28.37;20.33;;;;;;;;;;5075195;28;20505;-74
2021/10/31 02:43:58;;;;;;;26.23;19.77;;;;;;;;;;5074819;28;20476;-74
2021/10/31 02:46:26;;;;;;;30.80;20.00;;;;;;;;;;5074396;28;20443;-74
2021/10/31 02:48:53;;;;;;;30.87;20.40;;;;;;;;;;5074316;28;20436;-74
2021/10/31 02:51:27;;;;;;;26.27;21.27;;;;;;;;;;5074404;28;20810;-74
2021/10/31 02:53:57;;;;;;;30.33;20.03;;;;;;;;;;5074728;28;20520;-74
2021/10/31 02:56:27;;;;;;;29.53;21.37;;;;;;;;;;5074050;28;20446;-74
2021/10/31 02:58:58;;;;;;;32.13;21.50;;;;;;;;;;5074056;28;20926;-74
2021/10/31 03:01:26;;;;;;;33.87;21.30;;;;;;;;;;5074079;28;20520;-74
2021/10/31 03:03:54;;;;;;;28.60;19.70;;;;;;;;;;5074236;28;20459;-74
2021/10/31 03:06:22;;;;;;;29.27;20.77;;;;;;;;;;5073866;28;20930;-74
2021/10/31 03:08:49;;;;;;;29.40;21.37;;;;;;;;;;5074718;28;20456;-74
2021/10/31 03:11:16;;;;;;;33.30;21.80;;;;;;;;;;5073830;28;20461;-74
2021/10/31 03:13:44;;;;;;;30.90;21.53;;;;;;;;;;5074004;28;20480;-74
2021/10/31 03:16:12;;;;;;;29.80;21.57;;;;;;;;;;5074153;28;20515;-74
2021/10/31 03:18:40;;;;;;;28.53;21.40;;;;;;;;;;5073886;28;20454;-74
2021/10/31 03:21:07;;;;;;;32.30;21.20;;;;;;;;;;5073990;28;20468;-74
2021/10/31 03:23:35;;;;;;;34.37;22.70;;;;;;;;;;5073902;28;20467;-74
2021/10/31 03:26:02;;;;;;;30.87;20.50;;;;;;;;;;5073858;28;20441;-74
2021/10/31 03:28:29;;;;;;;28.80;19.83;;;;;;;;;;5073580;28;20874;-75
2021/10/31 03:30:56;;;;;;;26.17;19.40;;;;;;;;;;5073728;28;20448;-74
2021/10/31 03:33:25;;;;;;;26.03;18.93;;;;;;;;;;5073434;28;20988;-74
2021/10/31 03:35:53;;;;;;;30.00;21.80;;;;;;;;;;5073745;28;20470;-74
2021/10/31 03:38:21;;;;;;;28.47;19.40;;;;;;;;;;5073272;28;20448;-74
2021/10/31 03:40:49;;;;;;;27.00;19.80;;;;;;;;;;5073284;28;20995;-75
2021/10/31 03:43:19;;;;;;;26.23;20.17;;;;;;;;;;5074005;28;20453;-74
2021/10/31 03:45:46;;;;;;;32.60;20.00;;;;;;;;;;5073664;28;20476;-74
2021/10/31 03:48:13;;;;;;;27.13;20.17;;;;;;;;;;5073601;28;20480;-74
2021/10/31 03:50:41;;;;;;;25.03;19.23;;;;;;;;;;5073565;28;20470;-74
2021/10/31 03:53:09;;;;;;;31.50;20.77;;;;;;;;;;5072954;28;20492;-74
2021/10/31 03:55:36;;;;;;;27.43;18.27;;;;;;;;;;5073514;28;20437;-74
2021/10/31 03:58:04;;;;;;;29.80;19.57;;;;;;;;;;5073121;28;20440;-74
2021/10/31 04:00:31;;;;;;;26.40;18.93;;;;;;;;;;5073015;28;20476;-74
2021/10/31 04:02:59;;;;;;;31.07;18.70;;;;;;;;;;5073352;28;20866;-74
2021/10/31 04:05:26;;;;;;;25.90;19.30;;;;;;;;;;5073374;28;20528;-74
2021/10/31 04:07:55;;;;;;;24.90;18.20;;;;;;;;;;5073362;28;20452;-74
2021/10/31 04:10:22;;;;;;;28.07;19.10;;;;;;;;;;5073488;28;20443;-74
2021/10/31 04:12:50;;;;;;;27.20;19.20;;;;;;;;;;5073293;28;20578;-74
2021/10/31 04:15:18;;;;;;;26.03;17.73;;;;;;;;;;5073355;28;20534;-74
2021/10/31 04:17:45;;;;;;;22.17;18.20;;;;;;;;;;5073496;28;20801;-74
2021/10/31 04:20:12;;;;;;;25.93;19.00;;;;;;;;;;5073221;28;20472;-75
2021/10/31 04:22:40;;;;;;;27.33;19.13;;;;;;;;;;5073771;28;20534;-74
2021/10/31 04:25:09;;;;;;;26.67;17.47;;;;;;;;;;5073133;28;20459;-74
2021/10/31 04:27:36;;;;;;;30.17;19.37;;;;;;;;;;5073668;28;20522;-74
2021/10/31 04:30:04;;;;;;;28.30;19.33;;;;;;;;;;5073049;28;20444;-74
2021/10/31 04:32:31;;;;;;;26.80;17.20;;;;;;;;;;5073118;28;20468;-74
2021/10/31 04:34:58;;;;;;;27.10;19.13;;;;;;;;;;5072761;28;20450;-74
2021/10/31 04:37:26;;;;;;;27.37;19.40;;;;;;;;;;5073010;28;20440;-75
2021/10/31 04:39:54;;;;;;;27.60;18.60;;;;;;;;;;5075999;28;20444;-74
2021/10/31 04:42:28;;;;;;;27.63;18.97;;;;;;;;;;5077008;28;20484;-74
2021/10/31 04:44:55;;;;;;;25.53;18.93;;;;;;;;;;5077077;28;20470;-74
2021/10/31 04:47:22;;;;;;;31.07;19.03;;;;;;;;;;5076949;28;20535;-74
2021/10/31 04:49:50;;;;;;;25.93;18.30;;;;;;;;;;5076611;28;20940;-73
2021/10/31 04:52:17;;;;;;;22.87;17.77;;;;;;;;;;5076650;28;20496;-74
2021/10/31 04:54:44;;;;;;;24.70;18.50;;;;;;;;;;5076651;28;20440;-73
2021/10/31 04:57:11;;;;;;;27.20;18.93;;;;;;;;;;5076408;28;20443;-74
2021/10/31 04:59:40;;;;;;;27.23;17.73;;;;;;;;;;5076230;28;20440;-74
2021/10/31 05:02:07;;;;;;;24.90;18.60;;;;;;;;;;5076681;28;20453;-74
2021/10/31 05:04:34;;;;;;;27.40;20.03;;;;;;;;;;5076981;28;20436;-73
2021/10/31 05:07:02;;;;;;;26.53;18.27;;;;;;;;;;5076604;28;20446;-74
2021/10/31 05:09:29;;;;;;;25.47;19.00;;;;;;;;;;5076158;28;20440;-74
2021/10/31 05:11:56;;;;;;;25.20;17.87;;;;;;;;;;5076149;28;20949;-73
2021/10/31 05:14:23;;;;;;;24.43;18.17;;;;;;;;;;5076059;28;21010;-73
2021/10/31 05:16:52;;;;;;;26.27;18.97;;;;;;;;;;5076463;28;20836;-73
2021/10/31 05:19:19;;;;;;;29.57;19.90;;;;;;;;;;5076015;28;20440;-74
2021/10/31 05:21:46;;;;;;;27.53;19.73;;;;;;;;;;5076206;28;20440;-75
2021/10/31 05:24:14;;;;;;;24.17;19.10;;;;;;;;;;5076196;28;20444;-74
2021/10/31 05:26:41;;;;;;;34.93;20.80;;;;;;;;;;5076199;28;20475;-74
2021/10/31 05:29:08;;;;;;;27.93;19.77;;;;;;;;;;5076173;28;20450;-75
2021/10/31 05:31:35;;;;;;;31.80;21.07;;;;;;;;;;5076077;28;20445;-74
2021/10/31 05:34:04;;;;;;;31.60;19.30;;;;;;;;;;5075925;28;20472;-77
2021/10/31 05:36:32;;;;;;;31.90;19.60;;;;;;;;;;5076283;28;20444;-76
2021/10/31 05:38:59;;;;;;;29.40;19.60;;;;;;;;;;5075940;28;20464;-75
2021/10/31 05:41:27;;;;;;;29.77;19.33;;;;;;;;;;5075607;28;20441;-75
2021/10/31 05:43:54;;;;;;;28.97;19.40;;;;;;;;;;5075539;28;21040;-72
2021/10/31 05:46:21;;;;;;;28.30;18.80;;;;;;;;;;5076581;28;20456;-74
2021/10/31 05:48:48;;;;;;;28.23;19.70;;;;;;;;;;5076259;28;20428;-76
2021/10/31 05:51:17;;;;;;;32.20;18.47;;;;;;;;;;5072628;28;20452;-74
2021/10/31 05:53:44;;;;;;;27.80;20.30;;;;;;;;;;5074681;28;20484;-75
2021/10/31 05:56:12;;;;;;;28.20;18.53;;;;;;;;;;5075337;28;20869;-74
2021/10/31 05:58:39;;;;;;;23.70;18.13;;;;;;;;;;5075141;28;20448;-74
2021/10/31 06:01:06;;;;;;;26.20;19.00;;;;;;;;;;5075764;28;20443;-75
2021/10/31 06:03:33;;;;;;;27.43;18.50;;;;;;;;;;5075214;28;20452;-74
2021/10/31 06:06:01;;;;;;;25.40;18.37;;;;;;;;;;5075171;28;20443;-75
2021/10/31 06:08:30;;;;;;;22.80;17.43;;;;;;;;;;5074998;28;20447;-75
2021/10/31 06:10:57;;;;;;;24.83;17.13;;;;;;;;;;5075214;28;20437;-74
2021/10/31 06:13:24;;;;;;;27.63;18.53;;;;;;;;;;5074599;28;20502;-75
2021/10/31 06:15:51;;;;;;;27.70;20.70;;;;;;;;;;5075065;28;20491;-75
2021/10/31 06:18:19;;;;;;;27.20;17.47;;;;;;;;;;5074949;28;20444;-75
2021/10/31 06:20:47;;;;;;;25.17;17.90;;;;;;;;;;5074412;28;20440;-75
2021/10/31 06:23:15;;;;;;;27.23;18.40;;;;;;;;;;5073290;28;20460;-74
2021/10/31 06:25:44;;;;;;;24.60;17.33;;;;;;;;;;5074018;28;20537;-74
2021/10/31 06:28:11;;;;;;;32.23;18.50;;;;;;;;;;5073908;28;20519;-74
2021/10/31 06:30:38;;;;;;;31.27;18.60;;;;;;;;;;5073929;28;20523;-74
2021/10/31 06:33:05;;;;;;;26.03;17.70;;;;;;;;;;5074222;28;20475;-74
2021/10/31 06:35:33;;;;;;;28.63;20.53;;;;;;;;;;5074355;28;20862;-75
2021/10/31 06:38:01;;;;;;;27.03;18.30;;;;;;;;;;5074824;28;20502;-75
2021/10/31 06:40:28;;;;;;;23.70;17.80;;;;;;;;;;5074186;28;21019;-74
2021/10/31 06:42:57;;;;;;;23.20;15.87;;;;;;;;;;5074253;28;20531;-75
2021/10/31 06:45:24;;;;;;;28.53;17.63;;;;;;;;;;5073797;28;20979;-74
2021/10/31 06:47:51;;;;;;;26.07;18.50;;;;;;;;;;5074686;28;20540;-77
2021/10/31 06:50:18;;;;;;;22.80;18.80;;;;;;;;;;5074325;28;20527;-75
2021/10/31 06:52:49;;;;;;;25.13;18.30;;;;;;;;;;5072378;28;20503;-75
2021/10/31 06:55:16;;;;;;;36.10;21.03;;;;;;;;;;5074114;28;20436;-74
2021/10/31 06:57:44;;;;;;;33.07;18.23;;;;;;;;;;5074007;28;20448;-74
2021/10/31 07:00:13;;;;;;;33.20;20.30;;;;;;;;;;5074203;28;20516;-75
2021/10/31 07:02:40;;;;;;;29.10;19.17;;;;;;;;;;5073676;28;20491;-73
2021/10/31 07:05:08;;;;;;;30.70;18.43;;;;;;;;;;5074120;28;20443;-74
2021/10/31 07:07:35;;;;;;;23.80;18.30;;;;;;;;;;5073728;28;20519;-75
2021/10/31 07:10:03;;;;;;;27.80;17.47;;;;;;;;;;5073442;28;20448;-74
2021/10/31 07:12:30;;;;;;;27.30;19.23;;;;;;;;;;5073986;28;20881;-74
2021/10/31 07:14:57;;;;;;;32.20;19.17;;;;;;;;;;5073878;28;20472;-74
2021/10/31 07:17:26;;;;;;;25.57;18.47;;;;;;;;;;5073957;28;20502;-75
2021/10/31 07:19:53;;;;;;;25.33;19.40;;;;;;;;;;5073800;28;20475;-74
2021/10/31 07:22:20;;;;;;;25.83;16.83;;;;;;;;;;5072297;28;20971;-75
2021/10/31 07:24:51;;;;;;;26.93;20.43;;;;;;;;;;5073658;28;20447;-75
2021/10/31 07:27:19;;;;;;;25.70;18.80;;;;;;;;;;5073399;28;20431;-75
2021/10/31 07:29:46;;;;;;;30.40;21.80;;;;;;;;;;5073471;28;20448;-75
2021/10/31 07:32:13;;;;;;;26.40;18.07;;;;;;;;;;5073692;28;20551;-75
2021/10/31 07:34:42;;;;;;;24.13;17.30;;;;;;;;;;5073353;28;20541;-75
2021/10/31 07:37:09;;;;;;;27.07;18.57;;;;;;;;;;5073166;28;20853;-74
2021/10/31 07:39:37;;;;;;;23.90;16.97;;;;;;;;;;5073582;28;20531;-75
2021/10/31 07:42:05;;;;;;;25.07;17.97;;;;;;;;;;5073779;28;20531;-74
2021/10/31 07:44:32;;;;;;;24.30;17.20;;;;;;;;;;5072794;28;20447;-74
2021/10/31 07:46:59;;;;;;;23.00;17.27;;;;;;;;;;5072628;28;20531;-74
2021/10/31 07:49:27;;;;;;;25.23;18.20;;;;;;;;;;5073485;28;20519;-75
2021/10/31 07:51:55;;;;;;;22.20;15.63;;;;;;;;;;5072855;28;20475;-75
2021/10/31 07:54:25;;;;;;;21.57;15.80;;;;;;;;;;5071252;28;20476;-75
2021/10/31 07:56:55;;;;;;;22.20;16.60;;;;;;;;;;5072860;28;20455;-75
2021/10/31 07:59:22;;;;;;;26.60;15.17;;;;;;;;;;5072616;28;20432;-75
2021/10/31 08:01:49;;;;;;;21.60;15.93;;;;;;;;;;5073141;28;20504;-76
2021/10/31 08:04:17;;;;;;;26.87;15.30;;;;;;;;;;5073548;28;20443;-75
2021/10/31 08:06:45;;;;;;;25.13;16.60;;;;;;;;;;5072629;28;20440;-75
2021/10/31 08:09:14;;;;;;;24.70;15.60;;;;;;;;;;5072677;28;20548;-76
2021/10/31 08:11:42;;;;;;;21.67;15.70;;;;;;;;;;5072926;28;21021;-76
2021/10/31 08:14:10;;;;;;;20.77;14.43;;;;;;;;;;5072845;28;20472;-75
2021/10/31 08:16:38;;;;;;;24.53;15.97;;;;;;;;;;5073237;28;20448;-75
2021/10/31 08:19:05;;;;;;;22.27;16.23;;;;;;;;;;5072446;28;20437;-75
2021/10/31 08:21:32;;;;;;;19.17;16.53;;;;;;;;;;5072497;28;20953;-75
2021/10/31 08:24:00;;;;;;;20.73;16.23;;;;;;;;;;5070983;28;20445;-76
2021/10/31 08:26:29;;;;;;;18.27;14.70;;;;;;;;;;5072713;28;20475;-76
2021/10/31 08:28:56;;;;;;;20.70;14.17;;;;;;;;;;5072894;28;20467;-77
2021/10/31 08:31:26;;;;;;;19.60;14.07;;;;;;;;;;5073023;28;20452;-76
2021/10/31 08:33:57;;;;;;;19.30;14.93;;;;;;;;;;5072714;28;20583;-76
2021/10/31 08:36:24;;;;;;;21.67;15.70;;;;;;;;;;5072500;28;20901;-76
2021/10/31 08:38:52;;;;;;;18.30;13.80;;;;;;;;;;5072401;28;20535;-77
2021/10/31 08:41:21;;;;;;;14.20;12.33;;;;;;;;;;5072852;28;20441;-77
2021/10/31 08:43:50;;;;;;;14.93;12.83;;;;;;;;;;5072617;28;20437;-76
2021/10/31 08:46:17;;;;;;;15.13;12.40;;;;;;;;;;5072666;28;20478;-76
2021/10/31 08:48:45;;;;;;;14.80;12.10;;;;;;;;;;5072198;28;20940;-76
2021/10/31 08:51:12;;;;;;;13.57;11.33;;;;;;;;;;5072718;28;20473;-75
2021/10/31 08:53:39;;;;;;;18.33;11.53;;;;;;;;;;5072185;28;20488;-75
2021/10/31 08:56:10;;;;;;;15.37;12.13;;;;;;;;;;5070967;28;20452;-75
2021/10/31 08:58:38;;;;;;;12.33;11.03;;;;;;;;;;5072512;28;20432;-75
2021/10/31 09:01:07;;;;;;;10.60;9.50;;;;;;;;;;5072703;28;20447;-76
2021/10/31 09:03:34;;;;;;;12.90;10.13;;;;;;;;;;5072575;28;20920;-77
2021/10/31 09:06:01;;;;;;;14.47;10.47;;;;;;;;;;5072503;28;20523;-76
2021/10/31 09:08:28;;;;;;;10.20;9.20;;;;;;;;;;5072340;28;20476;-75
2021/10/31 09:10:56;;;;;;;10.80;9.40;;;;;;;;;;5072008;28;20447;-75
2021/10/31 09:13:23;;;;;;;9.80;8.70;;;;;;;;;;5072629;28;20437;-76
2021/10/31 09:15:51;;;;;;;9.87;8.87;;;;;;;;;;5071952;28;20523;-76
2021/10/31 09:18:19;;;;;;;9.73;8.60;;;;;;;;;;5071770;28;20441;-75
2021/10/31 09:20:47;;;;;;;13.43;8.80;;;;;;;;;;5072201;28;20437;-75
2021/10/31 09:23:14;;;;;;;9.23;8.33;;;;;;;;;;5072070;28;20464;-74
2021/10/31 09:25:41;;;;;;;8.07;7.37;;;;;;;;;;5073664;28;20444;-73
2021/10/31 09:28:09;;;;;;;7.27;6.67;;;;;;;;;;5075364;28;20437;-73
2021/10/31 09:30:37;;;;;;;6.80;6.17;;;;;;;;;;5075855;28;20531;-73
2021/10/31 09:33:04;;;;;;;8.77;7.30;;;;;;;;;;5076007;28;20494;-73
2021/10/31 09:35:41;;;;;;;7.10;5.90;;;;;;;;;;5075830;28;20500;-71
2021/10/31 09:38:08;;;;;;;7.07;6.47;;;;;;;;;;5075700;28;20460;-73
2021/10/31 09:40:37;;;;;;;7.60;6.07;;;;;;;;;;5075405;28;20536;-73
2021/10/31 09:43:04;;;;;;;6.23;5.67;;;;;;;;;;5075588;28;20445;-72
2021/10/31 09:45:32;;;;;;;8.80;6.30;;;;;;;;;;5075683;28;20451;-73
2021/10/31 09:48:01;;;;;;;8.60;5.90;;;;;;;;;;5075289;28;20968;-73
2021/10/31 09:50:29;;;;;;;5.93;5.43;;;;;;;;;;5075282;28;20445;-73
2021/10/31 09:52:58;;;;;;;6.53;5.70;;;;;;;;;;5075495;28;20862;-73
2021/10/31 09:55:25;;;;;;;8.63;6.57;;;;;;;;;;5074120;28;20479;-73
2021/10/31 09:57:52;;;;;;;6.97;6.30;;;;;;;;;;5075696;28;20477;-73
2021/10/31 10:00:21;;;;;;;5.47;4.77;;;;;;;;;;5074997;28;20437;-73
2021/10/31 10:03:02;;;;;;;6.60;4.93;;;;;;;;;;5075466;28;20942;-74
2021/10/31 10:05:30;;;;;;;6.03;5.53;;;;;;;;;;5076340;28;20451;-73
2021/10/31 10:08:12;;;;;;;5.63;5.13;;;;;;;;;;5075236;28;20473;-73
2021/10/31 10:10:44;;;;;;;6.33;5.83;;;;;;;;;;5075210;28;20526;-73
2021/10/31 10:13:21;;;;;;;5.93;5.40;;;;;;;;;;5075246;28;20525;-73
2021/10/31 10:15:48;;;;;;;5.57;5.10;;;;;;;;;;5075193;28;20473;-73
2021/10/31 10:18:29;;;;;;;6.00;5.30;;;;;;;;;;5075099;28;20441;-73
2021/10/31 10:20:56;;;;;;;5.73;5.17;;;;;;;;;;5074974;28;20432;-73
2021/10/31 10:23:24;;;;;;;6.33;5.00;;;;;;;;;;5074802;28;20448;-73
2021/10/31 10:25:54;;;;;;;5.47;4.83;;;;;;;;;;5074179;28;20529;-75
2021/10/31 10:28:25;;;;;;;7.83;5.30;;;;;;;;;;5074993;28;20448;-73
2021/10/31 10:30:52;;;;;;;6.10;5.20;;;;;;;;;;5074862;28;20770;-73
2021/10/31 10:33:21;;;;;;;6.27;4.60;;;;;;;;;;5075344;28;20440;-73
2021/10/31 10:35:53;;;;;;;4.60;4.20;;;;;;;;;;5074692;28;20483;-73
2021/10/31 10:38:20;;;;;;;6.80;4.30;;;;;;;;;;5074416;28;20488;-73
2021/10/31 10:40:49;;;;;;;5.17;4.67;;;;;;;;;;5074634;28;20438;-72
2021/10/31 10:43:16;;;;;;;5.73;5.10;;;;;;;;;;5075040;28;20442;-73
2021/10/31 10:45:45;;;;;;;5.40;3.90;;;;;;;;;;5074823;28;20509;-74
2021/10/31 10:48:16;;;;;;;5.20;3.83;;;;;;;;;;5075063;28;20473;-72
2021/10/31 10:50:44;;;;;;;4.00;3.70;;;;;;;;;;5073458;28;20502;-73
2021/10/31 10:53:14;;;;;;;3.90;3.60;;;;;;;;;;5074172;28;20478;-73
2021/10/31 10:55:41;;;;;;;3.47;3.27;;;;;;;;;;5074780;28;20821;-72
2021/10/31 10:58:12;;;;;;;5.00;3.67;;;;;;;;;;5072841;28;20495;-74
2021/10/31 11:00:40;;;;;;;4.33;3.93;;;;;;;;;;5074171;28;20425;-73
2021/10/31 11:03:08;;;;;;;4.00;3.70;;;;;;;;;;5074699;28;20443;-73
2021/10/31 11:05:37;;;;;;;4.40;4.10;;;;;;;;;;5074453;28;20455;-73
2021/10/31 11:08:10;;;;;;;3.90;3.60;;;;;;;;;;5074153;28;20446;-73
2021/10/31 11:10:37;;;;;;;4.63;3.70;;;;;;;;;;5074093;28;20457;-74
2021/10/31 11:13:07;;;;;;;8.17;7.30;;;;;;;;;;5074106;28;20452;-74
2021/10/31 11:15:36;;;;;;;6.13;4.60;;;;;;;;;;5074012;28;20472;-72
2021/10/31 11:18:05;;;;;;;5.60;4.00;;;;;;;;;;5073895;28;20472;-73
2021/10/31 11:20:33;;;;;;;5.33;4.03;;;;;;;;;;5073869;28;20441;-73
2021/10/31 11:23:03;;;;;;;5.40;4.60;;;;;;;;;;5074331;28;20457;-73
2021/10/31 11:25:31;;;;;;;4.17;3.80;;;;;;;;;;5073911;28;20482;-73
2021/10/31 11:27:59;;;;;;;4.00;3.70;;;;;;;;;;5072552;28;20454;-73
2021/10/31 11:30:27;;;;;;;5.57;4.03;;;;;;;;;;5073135;28;20439;-73
2021/10/31 11:32:57;;;;;;;4.10;3.70;;;;;;;;;;5074059;28;20763;-73
2021/10/31 11:35:24;;;;;;;4.83;3.50;;;;;;;;;;5073891;28;20488;-73
2021/10/31 11:37:55;;;;;;;3.67;3.37;;;;;;;;;;5073346;28;20449;-73
2021/10/31 11:40:22;;;;;;;3.73;3.00;;;;;;;;;;5073331;28;20429;-74
2021/10/31 11:42:50;;;;;;;3.63;3.00;;;;;;;;;;5073848;28;20476;-72
2021/10/31 11:45:19;;;;;;;2.80;2.60;;;;;;;;;;5074249;28;20447;-73
2021/10/31 11:47:47;;;;;;;3.77;3.47;;;;;;;;;;5072655;28;20527;-74
2021/10/31 11:50:20;;;;;;;3.33;3.03;;;;;;;;;;5073016;28;20804;-74
2021/10/31 11:52:52;;;;;;;4.40;2.70;;;;;;;;;;5073505;28;20479;-73
2021/10/31 11:55:36;;;;;;;4.93;2.70;;;;;;;;;;5073685;28;20508;-74
2021/10/31 11:58:31;;;;;;;3.30;2.83;;;;;;;;;;5072061;28;20977;-74
2021/10/31 12:01:01;;;;;;;2.87;2.40;;;;;;;;;;5072620;28;20467;-73
2021/10/31 12:03:44;;;;;;;5.40;3.10;;;;;;;;;;5073300;28;20532;-73
2021/10/31 12:06:30;;;;;;;2.80;2.60;;;;;;;;;;5073468;28;20451;-73
2021/10/31 12:08:59;;;;;;;3.10;2.90;;;;;;;;;;5073146;28;20574;-74
2021/10/31 12:11:41;;;;;;;2.83;2.63;;;;;;;;;;5073006;28;20944;-73
2021/10/31 12:14:10;;;;;;;2.70;2.50;;;;;;;;;;5073049;28;20462;-74
2021/10/31 12:16:51;;;;;;;3.03;2.73;;;;;;;;;;5073112;28;20571;-74
2021/10/31 12:19:18;;;;;;;4.60;2.63;;;;;;;;;;5072635;28;20517;-74
2021/10/31 12:21:47;;;;;;;3.27;2.70;;;;;;;;;;5073213;28;20451;-73
2021/10/31 12:24:17;;;;;;;3.23;2.60;;;;;;;;;;5073143;28;20446;-75
2021/10/31 12:26:46;;;;;;;2.87;2.57;;;;;;;;;;5072848;28;20430;-74
2021/10/31 12:29:14;;;;;;;3.00;2.40;;;;;;;;;;5071450;28;20520;-73
2021/10/31 12:31:52;;;;;;;3.00;2.80;;;;;;;;;;5072654;28;20453;-73
2021/10/31 12:34:21;;;;;;;2.77;2.57;;;;;;;;;;5073629;28;20468;-73
2021/10/31 12:36:49;;;;;;;3.00;2.80;;;;;;;;;;5073345;28;20530;-73
2021/10/31 12:39:35;;;;;;;3.33;3.03;;;;;;;;;;5072834;28;20447;-73
2021/10/31 12:42:13;;;;;;;6.53;2.87;;;;;;;;;;5073073;28;20439;-74
2021/10/31 12:44:42;;;;;;;2.90;2.67;;;;;;;;;;5072606;28;20538;-74
2021/10/31 12:47:13;;;;;;;3.30;2.10;;;;;;;;;;5072624;28;21009;-73
2021/10/31 12:49:41;;;;;;;3.40;2.60;;;;;;;;;;5073537;28;20427;-73
2021/10/31 12:52:20;;;;;;;4.60;2.70;;;;;;;;;;5072272;28;20563;-73
2021/10/31 12:54:55;;;;;;;3.93;2.70;;;;;;;;;;5072783;28;20489;-73
2021/10/31 12:57:24;;;;;;;3.90;2.37;;;;;;;;;;5072991;28;20425;-74
2021/10/31 12:59:53;;;;;;;2.43;2.23;;;;;;;;;;5073358;28;20444;-75
2021/10/31 13:02:22;;;;;;;2.90;2.60;;;;;;;;;;5076248;28;20444;-73
2021/10/31 13:04:54;;;;;;;3.97;2.67;;;;;;;;;;5076503;28;20530;-74
2021/10/31 13:07:25;;;;;;;3.27;2.40;;;;;;;;;;5075765;28;20423;-73
2021/10/31 13:09:55;;;;;;;5.40;2.40;;;;;;;;;;5075430;28;20446;-74
2021/10/31 13:12:25;;;;;;;4.00;2.30;;;;;;;;;;5075152;28;20915;-74
2021/10/31 13:14:52;;;;;;;3.50;2.47;;;;;;;;;;5075528;28;20437;-74
2021/10/31 13:17:20;;;;;;;2.30;2.10;;;;;;;;;;5076239;28;20449;-73
2021/10/31 13:19:47;;;;;;;3.23;2.20;;;;;;;;;;5076566;28;20534;-73
2021/10/31 13:22:16;;;;;;;4.30;2.40;;;;;;;;;;5075784;28;20549;-73
2021/10/31 13:24:48;;;;;;;2.40;2.20;;;;;;;;;;5076277;28;20456;-72
2021/10/31 13:27:20;;;;;;;2.60;2.20;;;;;;;;;;5076313;28;20441;-73
2021/10/31 13:29:49;;;;;;;3.33;2.03;;;;;;;;;;5074397;28;20878;-73
2021/10/31 13:32:17;;;;;;;2.87;2.47;;;;;;;;;;5075660;28;20525;-74
2021/10/31 13:34:45;;;;;;;2.60;2.20;;;;;;;;;;5076324;28;20449;-73
2021/10/31 13:37:12;;;;;;;4.73;2.50;;;;;;;;;;5076145;28;20521;-73
2021/10/31 13:39:40;;;;;;;2.77;1.90;;;;;;;;;;5075470;28;20441;-75
2021/10/31 13:42:10;;;;;;;2.40;2.20;;;;;;;;;;5075539;28;20476;-74
2021/10/31 13:44:38;;;;;;;2.67;2.47;;;;;;;;;;5076453;28;20430;-73
2021/10/31 13:47:31;;;;;;;4.57;3.43;;;;;;;;;;5075662;28;20456;-74
2021/10/31 13:50:01;;;;;;;2.77;2.30;;;;;;;;;;5073342;28;20943;-73
2021/10/31 13:52:28;;;;;;;3.93;2.40;;;;;;;;;;5074885;28;20877;-73
2021/10/31 13:54:56;;;;;;;2.50;2.20;;;;;;;;;;5075599;28;20906;-73
2021/10/31 13:57:26;;;;;;;2.60;2.40;;;;;;;;;;5075577;28;20437;-73
2021/10/31 13:59:53;;;;;;;2.40;2.20;;;;;;;;;;5074205;28;20445;-74
2021/10/31 14:02:22;;;;;;;2.50;2.30;;;;;;;;;;5074099;28;20440;-74
2021/10/31 14:05:06;;;;;;;2.40;2.20;;;;;;;;;;5075770;28;20521;-72
2021/10/31 14:07:35;;;;;;;2.20;1.90;;;;;;;;;;5075896;28;20429;-73
2021/10/31 14:10:02;;;;;;;2.33;2.20;;;;;;;;;;5075524;28;20862;-74
2021/10/31 14:12:29;;;;;;;2.63;2.07;;;;;;;;;;5074426;28;20528;-74
2021/10/31 14:15:05;;;;;;;3.30;2.40;;;;;;;;;;5075384;28;20476;-73
2021/10/31 14:17:34;;;;;;;3.47;1.93;;;;;;;;;;5075532;28;20482;-72
2021/10/31 14:20:01;;;;;;;3.90;2.37;;;;;;;;;;5075681;28;20446;-73
2021/10/31 14:22:30;;;;;;;3.20;2.80;;;;;;;;;;5075391;28;20544;-73
2021/10/31 14:25:05;;;;;;;3.30;3.00;;;;;;;;;;5075268;28;20437;-72
2021/10/31 14:27:35;;;;;;;3.27;2.80;;;;;;;;;;5075669;28;20436;-73
2021/10/31 14:30:30;;;;;;;2.97;2.60;;;;;;;;;;5074637;28;20445;-73
2021/10/31 14:33:01;;;;;;;3.97;2.60;;;;;;;;;;5038056;28;20910;-73
2021/10/31 14:35:42;;;;;;;3.40;2.40;;;;;;;;;;5075201;28;20576;-73
2021/10/31 14:38:11;;;;;;;4.43;2.70;;;;;;;;;;5074960;28;20949;-73